Time;durP1;ratioP1;P1;durP2;ratioP2;P2;SDS_P1;SDS_P2;PMS_P1;PMS_P2;Temp;Humidity;BMP_temperature;BMP_pressure;BME280_temperature;BME280_humidity;BME280_pressure;Samples;Min_cycle;Max_cycle;Signal;HPM_P1;HPM_P2
2024/01/29 00:01:53;;;;;;;21.57;19.67;;;0.10;99.90;;;;;;5033437;28;20441;-78
2024/01/29 00:04:20;;;;;;;21.07;19.20;;;0.10;99.90;;;;;;5037748;28;20522;-78
2024/01/29 00:06:46;;;;;;;21.30;19.60;;;0.10;99.90;;;;;;5039303;28;20796;-79
2024/01/29 00:09:14;;;;;;;22.10;20.00;;;0.20;99.90;;;;;;5031466;28;20812;-78
2024/01/29 00:11:42;;;;;;;21.53;19.63;;;0.20;99.90;;;;;;5036460;28;20523;-78
2024/01/29 00:14:09;;;;;;;20.63;18.93;;;0.10;99.90;;;;;;5039300;28;20531;-78
2024/01/29 00:16:35;;;;;;;22.00;19.90;;;0.10;99.90;;;;;;5037563;28;20455;-79
2024/01/29 00:19:03;;;;;;;21.77;19.77;;;0.10;99.90;;;;;;5042303;28;21077;-79
2024/01/29 00:21:29;;;;;;;21.33;19.37;;;0.10;99.90;;;;;;5048421;28;21054;-78
2024/01/29 00:23:59;;;;;;;20.57;18.77;;;0.10;99.90;;;;;;5040130;28;20766;-78
2024/01/29 00:26:26;;;;;;;21.40;19.60;;;0.00;99.90;;;;;;5052155;28;20441;-78
2024/01/29 00:28:55;;;;;;;21.17;19.30;;;0.00;99.90;;;;;;5050034;28;20516;-78
2024/01/29 00:31:22;;;;;;;21.80;19.90;;;0.00;99.90;;;;;;5036104;28;20828;-78
2024/01/29 00:33:49;;;;;;;20.83;19.23;;;0.00;99.90;;;;;;5046578;28;20445;-79
2024/01/29 00:36:16;;;;;;;21.00;19.17;;;0.00;99.90;;;;;;5042921;28;20524;-78
2024/01/29 00:38:42;;;;;;;21.43;19.63;;;0.00;99.90;;;;;;5035913;28;20846;-79
2024/01/29 00:41:09;;;;;;;20.90;19.03;;;0.10;99.90;;;;;;5046357;28;20444;-79
2024/01/29 00:43:36;;;;;;;21.30;19.30;;;0.10;99.90;;;;;;5041706;28;20488;-78
2024/01/29 00:46:04;;;;;;;20.57;18.67;;;0.10;99.90;;;;;;5040078;28;20449;-79
2024/01/29 00:48:31;;;;;;;21.67;19.67;;;0.00;99.90;;;;;;5040985;28;20466;-78
2024/01/29 00:50:58;;;;;;;21.80;19.80;;;0.00;99.90;;;;;;5048518;28;20473;-79
2024/01/29 00:53:25;;;;;;;21.70;19.80;;;0.00;99.90;;;;;;5051630;28;20438;-79
2024/01/29 00:55:53;;;;;;;19.67;18.03;;;0.00;99.90;;;;;;5034399;28;20495;-79
2024/01/29 00:58:20;;;;;;;21.40;19.40;;;0.00;99.90;;;;;;5042079;28;20919;-78
2024/01/29 01:00:47;;;;;;;21.10;19.30;;;0.00;99.90;;;;;;5046504;28;20495;-78
2024/01/29 01:03:16;;;;;;;20.53;18.67;;;0.00;99.90;;;;;;5049558;28;20748;-78
2024/01/29 01:05:42;;;;;;;21.43;19.43;;;0.00;99.90;;;;;;5035157;28;20453;-78
2024/01/29 01:08:09;;;;;;;19.87;18.23;;;0.10;99.90;;;;;;5041699;28;20494;-78
2024/01/29 01:10:36;;;;;;;20.03;18.43;;;0.10;99.90;;;;;;5046802;28;21046;-78
2024/01/29 01:13:03;;;;;;;21.33;19.43;;;0.10;99.90;;;;;;5043277;28;20851;-78
2024/01/29 01:15:30;;;;;;;19.93;18.33;;;0.10;99.90;;;;;;5049111;28;20514;-79
2024/01/29 01:17:57;;;;;;;20.33;18.63;;;0.10;99.90;;;;;;5043313;28;20493;-79
2024/01/29 01:20:25;;;;;;;20.87;18.83;;;0.20;99.90;;;;;;5049118;28;20439;-78
2024/01/29 01:22:52;;;;;;;20.80;19.10;;;0.20;99.90;;;;;;5032659;28;20507;-79
2024/01/29 01:25:19;;;;;;;20.03;18.30;;;0.10;99.90;;;;;;5049905;28;20440;-78
2024/01/29 01:27:45;;;;;;;20.70;18.80;;;0.10;99.90;;;;;;5044948;28;20450;-78
2024/01/29 01:30:13;;;;;;;20.23;18.43;;;0.10;99.90;;;;;;5040194;28;20499;-79
2024/01/29 01:32:40;;;;;;;19.43;17.70;;;0.10;99.90;;;;;;5043356;28;20465;-78
2024/01/29 01:35:07;;;;;;;21.17;19.07;;;0.10;99.90;;;;;;5044446;28;20826;-78
2024/01/29 01:37:35;;;;;;;21.07;19.37;;;0.00;99.90;;;;;;5034342;28;20493;-79
2024/01/29 01:40:02;;;;;;;20.47;18.77;;;0.10;99.90;;;;;;5047503;28;20462;-78
2024/01/29 01:42:29;;;;;;;20.80;19.10;;;0.10;99.90;;;;;;5043760;28;20454;-78
2024/01/29 01:44:56;;;;;;;21.80;19.90;;;0.10;99.90;;;;;;5041121;28;20433;-78
2024/01/29 01:47:23;;;;;;;21.37;19.37;;;0.00;99.90;;;;;;5048495;28;20831;-78
2024/01/29 01:49:50;;;;;;;19.87;18.27;;;0.00;99.90;;;;;;5042745;28;20908;-78
2024/01/29 01:52:18;;;;;;;20.43;18.70;;;0.00;99.90;;;;;;5037672;28;20782;-79
2024/01/29 01:54:47;;;;;;;22.03;19.93;;;0.00;99.90;;;;;;5035661;28;20478;-78
2024/01/29 01:57:14;;;;;;;20.83;18.93;;;0.00;99.90;;;;;;5050168;28;20448;-78
2024/01/29 01:59:41;;;;;;;21.03;19.13;;;0.00;99.90;;;;;;5045604;28;21023;-79
2024/01/29 02:02:08;;;;;;;21.03;19.13;;;0.00;99.90;;;;;;5037305;28;20440;-79
2024/01/29 02:04:35;;;;;;;21.13;19.30;;;0.10;99.90;;;;;;5036740;28;20435;-79
2024/01/29 02:07:03;;;;;;;22.07;19.93;;;0.00;99.90;;;;;;5038290;28;20936;-78
2024/01/29 02:09:30;;;;;;;20.30;18.27;;;0.00;99.90;;;;;;5045629;28;20751;-78
2024/01/29 02:11:58;;;;;;;20.23;18.40;;;-0.10;99.90;;;;;;5046522;28;20439;-78
2024/01/29 02:14:25;;;;;;;21.63;19.63;;;-0.20;99.90;;;;;;5047300;28;20453;-78
2024/01/29 02:16:52;;;;;;;20.83;19.03;;;-0.20;99.90;;;;;;5041637;28;20857;-79
2024/01/29 02:19:19;;;;;;;21.17;19.37;;;-0.20;99.90;;;;;;5039777;28;20518;-78
2024/01/29 02:21:46;;;;;;;20.80;19.03;;;-0.20;99.90;;;;;;5042819;28;20511;-78
2024/01/29 02:24:14;;;;;;;22.13;19.90;;;-0.20;99.90;;;;;;5044132;28;20479;-78
2024/01/29 02:26:45;;;;;;;21.87;19.87;;;-0.20;99.90;;;;;;5043645;28;20501;-79
2024/01/29 02:29:12;;;;;;;21.70;19.83;;;-0.20;99.90;;;;;;5031278;28;20465;-79
2024/01/29 02:31:38;;;;;;;22.53;20.33;;;-0.20;99.90;;;;;;5044519;28;20487;-79
2024/01/29 02:34:05;;;;;;;21.83;19.83;;;-0.20;99.90;;;;;;5045230;28;20468;-78
2024/01/29 02:36:32;;;;;;;21.77;19.77;;;-0.20;99.90;;;;;;5048554;28;20441;-78
2024/01/29 02:38:59;;;;;;;21.53;19.60;;;-0.20;99.90;;;;;;5043542;28;20502;-78
2024/01/29 02:41:27;;;;;;;20.53;18.67;;;-0.10;99.90;;;;;;5042720;28;20445;-78
2024/01/29 02:43:54;;;;;;;20.23;18.50;;;-0.10;99.90;;;;;;5046276;28;20448;-78
2024/01/29 02:46:20;;;;;;;22.37;20.20;;;-0.10;99.90;;;;;;5049477;28;20938;-78
2024/01/29 02:48:47;;;;;;;21.60;19.37;;;-0.20;99.90;;;;;;5044479;28;20453;-78
2024/01/29 02:51:14;;;;;;;20.57;18.77;;;-0.10;99.90;;;;;;5044590;28;20502;-78
2024/01/29 02:53:41;;;;;;;20.30;18.50;;;-0.20;99.90;;;;;;5046501;28;20460;-78
2024/01/29 02:56:07;;;;;;;21.73;19.70;;;-0.20;99.90;;;;;;5036921;28;20536;-79
2024/01/29 02:58:35;;;;;;;20.57;18.77;;;-0.20;99.90;;;;;;5048424;28;20491;-78
2024/01/29 03:01:03;;;;;;;21.83;19.80;;;-0.10;99.90;;;;;;5044126;28;20444;-78
2024/01/29 03:03:29;;;;;;;21.03;19.17;;;-0.20;99.90;;;;;;5047805;28;20460;-78
2024/01/29 03:05:56;;;;;;;20.30;18.57;;;-0.30;99.90;;;;;;5042758;28;20481;-78
2024/01/29 03:08:23;;;;;;;21.10;19.03;;;-0.20;99.90;;;;;;5044648;28;20522;-78
2024/01/29 03:10:50;;;;;;;20.10;18.40;;;-0.20;99.90;;;;;;5036585;28;20778;-79
2024/01/29 03:13:16;;;;;;;21.97;19.83;;;-0.20;99.90;;;;;;5038009;28;20479;-78
2024/01/29 03:15:45;;;;;;;19.57;17.87;;;-0.20;99.90;;;;;;5039397;28;20443;-78
2024/01/29 03:18:11;;;;;;;19.57;17.93;;;-0.30;99.90;;;;;;5037965;28;20532;-78
2024/01/29 03:20:38;;;;;;;20.87;18.80;;;-0.30;99.90;;;;;;5038130;28;20460;-78
2024/01/29 03:23:05;;;;;;;19.93;18.23;;;-0.30;99.90;;;;;;5031391;28;20448;-78
2024/01/29 03:25:32;;;;;;;19.33;17.67;;;-0.30;99.90;;;;;;5039367;28;20495;-78
2024/01/29 03:27:59;;;;;;;21.40;18.17;;;-0.40;99.90;;;;;;5041772;28;20470;-79
2024/01/29 03:30:25;;;;;;;19.60;17.90;;;-0.30;99.90;;;;;;5031077;28;20480;-79
2024/01/29 03:32:56;;;;;;;19.33;17.63;;;-0.40;99.90;;;;;;5030498;28;20492;-79
2024/01/29 03:35:22;;;;;;;20.27;18.37;;;-0.30;99.90;;;;;;5043371;28;20486;-79
2024/01/29 03:37:49;;;;;;;18.77;17.00;;;-0.40;99.90;;;;;;5039367;28;20473;-78
2024/01/29 03:40:16;;;;;;;18.83;17.23;;;-0.40;99.90;;;;;;5044405;28;21060;-78
2024/01/29 03:42:43;;;;;;;19.37;17.57;;;-0.40;99.90;;;;;;5040788;28;20504;-78
2024/01/29 03:45:10;;;;;;;17.83;16.43;;;-0.40;99.90;;;;;;5045082;28;20602;-78
2024/01/29 03:47:37;;;;;;;17.77;16.37;;;-0.40;99.90;;;;;;5042718;28;20524;-78
2024/01/29 03:50:06;;;;;;;17.57;16.07;;;-0.30;99.90;;;;;;5050325;28;20455;-76
2024/01/29 03:52:33;;;;;;;18.27;16.67;;;-0.30;99.90;;;;;;5034281;28;20450;-79
2024/01/29 03:55:00;;;;;;;16.77;15.43;;;-0.30;99.90;;;;;;5027401;28;20491;-81
2024/01/29 03:57:26;;;;;;;17.17;15.87;;;-0.20;99.90;;;;;;5031502;28;20459;-80
2024/01/29 03:59:56;;;;;;;17.53;16.03;;;-0.20;99.90;;;;;;5041626;28;20495;-80
2024/01/29 04:02:23;;;;;;;17.13;15.83;;;-0.20;99.90;;;;;;5030423;28;20447;-81
2024/01/29 04:04:50;;;;;;;17.67;16.27;;;-0.10;99.90;;;;;;5035864;28;20441;-81
2024/01/29 04:07:18;;;;;;;16.70;15.37;;;-0.10;99.90;;;;;;5034938;28;20446;-80
2024/01/29 04:09:45;;;;;;;16.83;15.40;;;-0.10;99.90;;;;;;5031327;28;20489;-80
2024/01/29 04:12:11;;;;;;;17.40;16.07;;;0.00;99.90;;;;;;5035976;28;20483;-78
2024/01/29 04:14:38;;;;;;;16.53;15.33;;;-0.10;99.90;;;;;;5035281;28;20453;-80
2024/01/29 04:17:06;;;;;;;16.50;15.13;;;-0.10;99.90;;;;;;5040967;28;20446;-81
2024/01/29 04:19:34;;;;;;;16.83;15.53;;;0.00;99.90;;;;;;5042031;28;21036;-81
2024/01/29 04:22:00;;;;;;;17.00;15.60;;;0.00;99.90;;;;;;5020341;28;20471;-79
2024/01/29 04:24:29;;;;;;;17.07;15.77;;;-0.10;99.90;;;;;;5037862;28;20435;-81
2024/01/29 04:26:56;;;;;;;15.77;14.50;;;0.00;99.90;;;;;;5035945;28;20470;-81
2024/01/29 04:29:23;;;;;;;17.07;15.57;;;0.00;99.90;;;;;;5033418;28;20465;-81
2024/01/29 04:31:50;;;;;;;17.57;16.23;;;0.00;99.90;;;;;;5035715;28;20515;-81
2024/01/29 04:34:16;;;;;;;16.40;15.17;;;0.00;99.90;;;;;;5055302;28;20442;-82
2024/01/29 04:36:46;;;;;;;17.10;15.67;;;0.00;99.90;;;;;;5041675;28;20430;-81
2024/01/29 04:39:13;;;;;;;16.27;14.87;;;-0.10;99.90;;;;;;5045858;28;20477;-81
2024/01/29 04:41:41;;;;;;;17.23;15.70;;;-0.10;99.90;;;;;;5039688;28;20200;-79
2024/01/29 04:44:08;;;;;;;17.13;15.73;;;-0.10;99.90;;;;;;5047856;28;20514;-78
2024/01/29 04:46:36;;;;;;;16.57;15.37;;;-0.10;99.90;;;;;;5050838;28;20438;-78
2024/01/29 04:49:03;;;;;;;17.37;15.97;;;-0.10;99.90;;;;;;5030460;28;20445;-78
2024/01/29 04:51:30;;;;;;;16.13;14.93;;;-0.10;99.90;;;;;;5051574;28;20473;-78
2024/01/29 04:53:57;;;;;;;16.53;15.33;;;-0.10;99.90;;;;;;5040320;28;20434;-78
2024/01/29 04:56:23;;;;;;;16.47;15.17;;;-0.10;99.90;;;;;;5044508;28;20948;-78
2024/01/29 04:58:52;;;;;;;15.37;14.27;;;-0.10;99.90;;;;;;5034600;28;20489;-79
2024/01/29 05:01:18;;;;;;;16.83;15.57;;;-0.10;99.90;;;;;;5047965;28;20436;-78
2024/01/29 05:03:45;;;;;;;16.37;15.07;;;-0.10;99.90;;;;;;5050051;28;20476;-78
2024/01/29 05:06:12;;;;;;;16.77;15.37;;;-0.10;99.90;;;;;;5040882;28;20453;-78
2024/01/29 05:08:39;;;;;;;17.03;15.53;;;-0.10;99.90;;;;;;5034035;28;20984;-78
2024/01/29 05:11:06;;;;;;;16.27;15.07;;;-0.10;99.90;;;;;;5036583;28;20453;-78
2024/01/29 05:13:34;;;;;;;16.63;15.33;;;-0.10;99.90;;;;;;5034347;28;20469;-78
2024/01/29 05:16:02;;;;;;;17.30;15.80;;;-0.10;99.90;;;;;;5046530;28;20437;-78
2024/01/29 05:18:29;;;;;;;16.80;15.53;;;-0.10;99.90;;;;;;5033116;28;20569;-78
2024/01/29 05:20:55;;;;;;;16.73;15.40;;;-0.20;99.90;;;;;;5042844;28;20481;-78
2024/01/29 05:23:22;;;;;;;16.40;15.10;;;-0.10;99.90;;;;;;5042358;28;20455;-78
2024/01/29 05:25:49;;;;;;;16.80;15.37;;;-0.10;99.90;;;;;;5045738;28;20455;-78
2024/01/29 05:28:16;;;;;;;16.60;15.37;;;-0.10;99.90;;;;;;5035734;28;20472;-78
2024/01/29 05:30:42;;;;;;;16.93;15.73;;;-0.10;99.90;;;;;;5042621;28;20547;-78
2024/01/29 05:33:10;;;;;;;17.97;16.47;;;0.00;99.90;;;;;;5034098;28;20430;-79
2024/01/29 05:35:38;;;;;;;17.53;16.10;;;0.10;99.90;;;;;;5038364;28;20462;-78
2024/01/29 05:38:05;;;;;;;16.90;15.50;;;0.20;99.90;;;;;;5048022;28;20489;-78
2024/01/29 05:40:32;;;;;;;18.53;17.03;;;0.20;99.90;;;;;;5040747;28;20542;-78
2024/01/29 05:42:59;;;;;;;17.90;16.50;;;0.30;99.90;;;;;;5041789;28;20477;-78
2024/01/29 05:45:26;;;;;;;17.53;16.27;;;0.30;99.90;;;;;;5033688;28;20448;-76
2024/01/29 05:47:52;;;;;;;18.23;16.67;;;0.40;99.90;;;;;;5034313;28;20827;-79
2024/01/29 05:50:21;;;;;;;18.30;16.70;;;0.40;99.90;;;;;;5039542;28;20508;-79
2024/01/29 05:52:47;;;;;;;18.13;16.53;;;0.50;99.90;;;;;;5043117;28;20445;-78
2024/01/29 05:55:14;;;;;;;18.90;17.40;;;0.50;99.90;;;;;;5045197;28;20976;-78
2024/01/29 05:57:42;;;;;;;19.00;17.40;;;0.50;99.90;;;;;;5041996;28;20448;-78
2024/01/29 06:00:10;;;;;;;19.10;17.60;;;0.50;99.90;;;;;;5042164;28;20470;-78
2024/01/29 06:02:42;;;;;;;20.37;18.43;;;0.50;99.90;;;;;;5045022;28;20434;-78
2024/01/29 06:05:11;;;;;;;19.83;18.17;;;0.50;99.90;;;;;;5031980;28;20453;-78
2024/01/29 06:07:40;;;;;;;18.83;17.30;;;0.40;99.90;;;;;;5044451;28;20822;-78
2024/01/29 06:10:08;;;;;;;19.10;17.23;;;0.40;99.90;;;;;;5046948;28;20446;-78
2024/01/29 06:12:35;;;;;;;19.13;17.53;;;0.30;99.90;;;;;;5045547;28;20441;-78
2024/01/29 06:15:02;;;;;;;19.13;17.23;;;0.30;99.90;;;;;;5037300;28;20450;-78
2024/01/29 06:17:31;;;;;;;19.20;17.37;;;0.30;99.90;;;;;;5044086;28;20457;-79
2024/01/29 06:19:58;;;;;;;19.77;18.17;;;0.30;99.90;;;;;;5037601;28;20532;-78
2024/01/29 06:22:24;;;;;;;19.57;17.73;;;0.20;99.90;;;;;;5038100;28;21029;-79
2024/01/29 06:24:53;;;;;;;19.60;17.70;;;0.20;99.90;;;;;;5040478;28;20487;-78
2024/01/29 06:27:19;;;;;;;20.33;18.43;;;0.20;99.90;;;;;;5037088;28;20472;-78
2024/01/29 06:29:46;;;;;;;19.00;17.43;;;0.20;99.90;;;;;;5039679;28;20843;-78
2024/01/29 06:32:13;;;;;;;20.53;18.80;;;0.20;99.90;;;;;;5026823;28;20218;-78
2024/01/29 06:34:40;;;;;;;20.07;18.17;;;0.20;99.90;;;;;;5033527;28;20500;-79
2024/01/29 06:37:07;;;;;;;20.20;18.40;;;0.10;99.90;;;;;;5048194;28;20285;-79
2024/01/29 06:39:34;;;;;;;21.70;19.57;;;0.10;99.90;;;;;;5041779;28;21040;-77
2024/01/29 06:42:02;;;;;;;20.73;18.63;;;0.10;99.90;;;;;;5039226;28;20453;-79
2024/01/29 06:44:29;;;;;;;19.47;17.70;;;0.00;99.90;;;;;;5038566;28;20518;-79
2024/01/29 06:46:56;;;;;;;20.00;18.20;;;0.00;99.90;;;;;;5042547;28;20449;-77
2024/01/29 06:49:27;;;;;;;21.83;19.50;;;0.00;99.90;;;;;;5037133;28;20465;-77
2024/01/29 06:51:54;;;;;;;21.30;19.40;;;0.00;99.90;;;;;;5044031;28;20979;-77
2024/01/29 06:54:21;;;;;;;19.77;18.13;;;0.00;99.90;;;;;;5048518;28;20429;-79
2024/01/29 06:56:48;;;;;;;20.17;18.27;;;0.00;99.90;;;;;;5023865;28;20680;-79
2024/01/29 06:59:16;;;;;;;19.67;17.77;;;0.00;99.90;;;;;;5027468;28;20461;-79
2024/01/29 07:01:43;;;;;;;19.47;17.97;;;0.00;99.90;;;;;;5040617;28;20438;-79
2024/01/29 07:04:10;;;;;;;18.83;17.30;;;0.00;99.90;;;;;;5043396;28;20473;-79
2024/01/29 07:06:36;;;;;;;18.63;17.13;;;0.10;99.90;;;;;;5040473;28;20430;-78
2024/01/29 07:09:03;;;;;;;18.53;16.83;;;0.10;99.90;;;;;;5036691;28;21087;-81
2024/01/29 07:11:30;;;;;;;19.77;17.83;;;0.10;99.90;;;;;;5044431;28;20479;-81
2024/01/29 07:13:57;;;;;;;18.30;16.67;;;0.10;99.90;;;;;;5034135;28;20452;-81
2024/01/29 07:16:25;;;;;;;19.40;17.60;;;0.10;99.90;;;;;;5027056;28;20940;-81
2024/01/29 07:18:52;;;;;;;19.90;18.07;;;0.20;99.90;;;;;;5025404;28;20474;-81
2024/01/29 07:21:19;;;;;;;19.27;17.67;;;0.20;99.90;;;;;;5046863;28;20988;-81
2024/01/29 07:23:46;;;;;;;18.70;16.90;;;0.30;99.90;;;;;;5032949;28;20468;-79
2024/01/29 07:26:14;;;;;;;19.73;17.97;;;0.30;99.90;;;;;;5042239;28;20461;-78
2024/01/29 07:28:41;;;;;;;18.33;16.67;;;0.40;99.90;;;;;;5046309;28;21240;-78
2024/01/29 07:31:08;;;;;;;18.73;17.03;;;0.40;99.90;;;;;;5037239;28;20512;-78
2024/01/29 07:33:36;;;;;;;18.17;16.77;;;0.50;99.90;;;;;;5038271;28;20474;-78
2024/01/29 07:36:03;;;;;;;18.40;16.90;;;0.50;99.90;;;;;;5038220;28;20481;-78
2024/01/29 07:38:29;;;;;;;17.83;16.43;;;0.60;99.90;;;;;;5046531;28;20901;-78
2024/01/29 07:40:56;;;;;;;17.40;16.00;;;0.70;99.90;;;;;;5038110;28;20508;-78
2024/01/29 07:43:23;;;;;;;18.17;16.50;;;0.80;99.90;;;;;;5044790;28;20461;-78
2024/01/29 07:45:50;;;;;;;16.20;15.00;;;0.90;99.90;;;;;;5040393;28;20599;-78
2024/01/29 07:48:16;;;;;;;15.87;14.67;;;0.90;99.90;;;;;;5039453;28;20638;-78
2024/01/29 07:50:45;;;;;;;16.57;15.27;;;1.00;99.90;;;;;;5040127;28;20195;-79
2024/01/29 07:53:11;;;;;;;17.33;15.83;;;1.00;99.90;;;;;;5045721;28;20199;-79
2024/01/29 07:55:38;;;;;;;17.23;15.80;;;1.10;99.90;;;;;;5039431;28;20632;-79
2024/01/29 07:58:05;;;;;;;16.93;15.63;;;1.20;99.90;;;;;;5032956;28;20216;-78
2024/01/29 08:00:31;;;;;;;18.03;16.60;;;1.30;99.90;;;;;;5026743;28;20215;-79
2024/01/29 08:02:58;;;;;;;16.77;15.57;;;1.40;99.90;;;;;;5044394;28;20297;-79
2024/01/29 08:05:25;;;;;;;16.73;15.43;;;1.50;99.90;;;;;;5044625;28;20196;-79
2024/01/29 08:07:53;;;;;;;16.90;15.53;;;1.60;99.90;;;;;;5041956;28;20204;-79
2024/01/29 08:10:20;;;;;;;15.87;14.77;;;1.70;99.90;;;;;;5037931;28;20562;-79
2024/01/29 08:12:47;;;;;;;16.20;15.00;;;1.80;99.90;;;;;;5036307;28;20197;-79
2024/01/29 08:15:14;;;;;;;18.43;16.93;;;2.00;99.90;;;;;;5034308;28;20655;-79
2024/01/29 08:17:41;;;;;;;17.90;16.40;;;2.20;99.90;;;;;;5041076;28;20196;-79
2024/01/29 08:20:08;;;;;;;18.33;16.50;;;2.50;99.90;;;;;;5041402;28;20310;-80
2024/01/29 08:22:36;;;;;;;17.60;16.20;;;2.70;99.90;;;;;;5041597;28;20200;-79
2024/01/29 08:25:05;;;;;;;18.40;17.10;;;3.10;99.90;;;;;;5033915;28;20196;-79
2024/01/29 08:27:32;;;;;;;18.93;17.47;;;3.40;99.90;;;;;;5047419;28;20295;-79
2024/01/29 08:29:58;;;;;;;18.50;17.00;;;3.80;99.90;;;;;;5043654;28;20303;-79
2024/01/29 08:32:25;;;;;;;18.70;17.20;;;4.20;99.90;;;;;;5045993;28;20201;-79
2024/01/29 08:34:52;;;;;;;17.70;16.40;;;4.50;99.90;;;;;;5030405;28;20225;-79
2024/01/29 08:37:19;;;;;;;17.70;16.20;;;4.90;99.90;;;;;;5034196;28;20215;-80
2024/01/29 08:39:46;;;;;;;16.77;15.50;;;5.20;99.90;;;;;;5039228;28;20601;-79
2024/01/29 08:42:15;;;;;;;16.57;15.37;;;5.50;99.90;;;;;;5044441;28;20267;-80
2024/01/29 08:44:41;;;;;;;16.10;15.00;;;5.90;99.90;;;;;;5039543;28;20230;-80
2024/01/29 08:47:08;;;;;;;16.23;15.13;;;6.30;99.90;;;;;;5047657;28;20231;-80
2024/01/29 08:49:35;;;;;;;16.10;15.00;;;6.60;99.90;;;;;;5042538;28;20310;-80
2024/01/29 08:52:02;;;;;;;16.27;14.97;;;6.80;99.90;;;;;;5047008;28;20234;-79
2024/01/29 08:54:29;;;;;;;16.43;15.23;;;6.80;99.90;;;;;;5043949;28;20679;-80
2024/01/29 08:56:56;;;;;;;16.37;15.10;;;6.90;99.90;;;;;;5047579;28;20246;-80
2024/01/29 08:59:29;;;;;;;15.17;14.10;;;7.00;99.90;;;;;;5037825;28;20219;-80
2024/01/29 09:01:57;;;;;;;14.90;13.80;;;7.20;99.90;;;;;;5036722;28;20230;-79
2024/01/29 09:04:24;;;;;;;15.53;14.23;;;7.40;99.90;;;;;;5033363;28;20286;-79
2024/01/29 09:06:52;;;;;;;14.73;13.73;;;7.50;99.90;;;;;;5032831;28;20210;-79
2024/01/29 09:09:19;;;;;;;14.53;13.53;;;7.80;99.90;;;;;;5033763;28;20220;-79
2024/01/29 09:11:45;;;;;;;14.60;13.60;;;7.80;99.90;;;;;;5032719;28;20195;-79
2024/01/29 09:14:12;;;;;;;13.70;12.80;;;7.80;99.90;;;;;;5033326;28;20200;-79
2024/01/29 09:16:40;;;;;;;14.00;13.10;;;8.00;99.90;;;;;;5034071;28;20238;-79
2024/01/29 09:19:07;;;;;;;13.17;12.27;;;7.90;99.90;;;;;;5032628;28;20281;-79
2024/01/29 09:21:36;;;;;;;13.67;12.70;;;8.00;99.90;;;;;;5032985;28;20343;-79
2024/01/29 09:24:03;;;;;;;13.60;12.70;;;8.00;99.90;;;;;;5033359;28;20270;-79
2024/01/29 09:26:30;;;;;;;12.97;12.10;;;8.00;99.90;;;;;;5034817;28;20275;-81
2024/01/29 09:28:57;;;;;;;12.87;11.97;;;8.10;99.90;;;;;;5033513;28;20706;-81
2024/01/29 09:31:24;;;;;;;12.77;11.97;;;8.10;99.90;;;;;;5036878;28;20188;-81
2024/01/29 09:33:52;;;;;;;12.60;11.77;;;8.10;99.90;;;;;;5040737;28;20230;-81
2024/01/29 09:36:19;;;;;;;12.70;11.90;;;8.00;99.90;;;;;;5038952;28;20228;-81
2024/01/29 09:38:46;;;;;;;12.97;11.97;;;7.80;99.90;;;;;;5032740;28;20231;-81
2024/01/29 09:41:13;;;;;;;13.13;12.23;;;7.70;99.90;;;;;;5041536;28;20219;-80
2024/01/29 09:43:41;;;;;;;12.77;11.77;;;7.60;99.90;;;;;;5038896;28;20222;-80
2024/01/29 09:46:09;;;;;;;12.60;11.70;;;7.60;99.90;;;;;;5040437;28;20199;-80
2024/01/29 09:48:37;;;;;;;12.93;11.93;;;7.50;99.90;;;;;;5042911;28;20265;-80
2024/01/29 09:51:06;;;;;;;13.13;12.10;;;7.40;99.90;;;;;;5033061;28;20569;-80
2024/01/29 09:53:35;;;;;;;13.00;12.00;;;7.40;99.90;;;;;;5043079;28;20199;-80
2024/01/29 09:56:02;;;;;;;12.83;11.93;;;7.30;99.90;;;;;;5038806;28;20207;-80
2024/01/29 09:58:28;;;;;;;12.83;11.83;;;7.20;99.90;;;;;;5043128;28;20228;-77
2024/01/29 10:00:57;;;;;;;12.77;11.67;;;7.20;99.90;;;;;;5037253;28;20321;-77
2024/01/29 10:03:28;;;;;;;12.70;11.80;;;7.20;99.90;;;;;;5042875;28;20241;-77
2024/01/29 10:05:57;;;;;;;12.50;11.70;;;7.20;99.90;;;;;;5048227;28;20259;-77
2024/01/29 10:08:25;;;;;;;12.53;11.63;;;7.20;99.90;;;;;;5044012;28;20216;-78
2024/01/29 10:10:52;;;;;;;12.23;11.33;;;7.20;99.90;;;;;;5053309;28;20253;-77
2024/01/29 10:13:20;;;;;;;13.00;12.10;;;7.30;99.90;;;;;;5046299;28;20345;-78
2024/01/29 10:15:48;;;;;;;12.53;11.70;;;7.30;99.90;;;;;;5050079;28;20199;-78
2024/01/29 10:18:16;;;;;;;13.50;12.43;;;7.40;99.90;;;;;;5047237;28;20635;-78
2024/01/29 10:20:42;;;;;;;12.90;12.00;;;7.40;99.90;;;;;;5050814;28;20204;-77
2024/01/29 10:23:09;;;;;;;12.07;11.27;;;7.50;99.90;;;;;;5039995;28;20262;-79
2024/01/29 10:25:38;;;;;;;12.57;11.77;;;7.50;99.90;;;;;;5032294;28;20203;-81
2024/01/29 10:28:09;;;;;;;12.83;11.73;;;7.60;99.90;;;;;;5042794;28;20673;-79
2024/01/29 10:30:36;;;;;;;12.53;11.73;;;7.60;99.90;;;;;;5036115;28;20649;-79
2024/01/29 10:33:02;;;;;;;12.30;11.50;;;7.60;99.90;;;;;;5032739;28;20234;-80
2024/01/29 10:35:29;;;;;;;12.63;11.83;;;7.70;99.90;;;;;;5040757;28;20478;-81
2024/01/29 10:38:01;;;;;;;12.47;11.67;;;7.70;99.90;;;;;;5034214;28;20629;-79
2024/01/29 10:40:28;;;;;;;12.50;11.70;;;7.70;99.90;;;;;;5046175;28;20203;-81
2024/01/29 10:42:59;;;;;;;12.17;11.43;;;7.80;99.90;;;;;;5041501;28;20267;-82
2024/01/29 10:45:27;;;;;;;12.50;11.60;;;7.90;99.90;;;;;;5046936;28;20365;-78
2024/01/29 10:47:59;;;;;;;12.80;11.90;;;7.90;99.90;;;;;;5042195;28;20235;-78
2024/01/29 10:50:26;;;;;;;12.53;11.63;;;7.90;99.90;;;;;;5050299;28;20195;-78
2024/01/29 10:52:55;;;;;;;12.17;11.40;;;8.00;99.90;;;;;;5034909;28;20208;-78
2024/01/29 10:55:22;;;;;;;12.63;11.77;;;8.10;99.90;;;;;;5040364;28;20196;-78
2024/01/29 10:57:49;;;;;;;12.00;11.20;;;8.20;99.90;;;;;;5037414;28;20663;-78
2024/01/29 11:00:19;;;;;;;12.33;11.53;;;8.30;99.90;;;;;;5040967;28;20253;-78
2024/01/29 11:02:47;;;;;;;11.90;11.10;;;8.30;99.90;;;;;;5022911;28;20274;-78
2024/01/29 11:05:14;;;;;;;12.00;11.20;;;8.40;99.90;;;;;;5031108;28;20250;-78
2024/01/29 11:07:44;;;;;;;12.67;11.87;;;8.40;99.90;;;;;;5034106;28;20199;-78
2024/01/29 11:10:18;;;;;;;13.00;12.17;;;8.50;99.90;;;;;;5039209;28;20219;-79
2024/01/29 11:12:45;;;;;;;13.10;12.20;;;8.50;99.90;;;;;;5030606;28;20245;-79
2024/01/29 11:15:12;;;;;;;13.60;12.70;;;8.60;99.90;;;;;;5046064;28;20242;-79
2024/01/29 11:17:42;;;;;;;13.47;12.57;;;8.70;99.90;;;;;;5040597;28;20207;-79
2024/01/29 11:20:12;;;;;;;14.93;13.77;;;8.70;99.90;;;;;;5037439;28;20215;-79
2024/01/29 11:22:41;;;;;;;14.70;13.60;;;8.80;99.90;;;;;;5027739;28;20221;-79
2024/01/29 11:25:09;;;;;;;14.10;13.07;;;8.80;99.90;;;;;;5042588;28;20219;-79
2024/01/29 11:27:38;;;;;;;15.03;14.03;;;8.80;99.90;;;;;;5037668;28;20698;-79
2024/01/29 11:30:18;;;;;;;15.67;14.57;;;8.90;99.90;;;;;;5041405;28;20221;-77
2024/01/29 11:32:46;;;;;;;15.23;14.03;;;8.90;99.90;;;;;;5043701;28;20572;-78
2024/01/29 11:35:15;;;;;;;15.23;14.13;;;9.00;99.90;;;;;;5042175;28;20686;-80
2024/01/29 11:37:43;;;;;;;15.57;14.40;;;9.00;99.90;;;;;;5038603;28;21734;-78
2024/01/29 11:40:33;;;;;;;15.37;14.23;;;9.10;99.90;;;;;;5045099;28;20203;-78
2024/01/29 11:43:00;;;;;;;15.40;14.40;;;9.10;99.90;;;;;;5037399;28;20317;-78
2024/01/29 11:45:29;;;;;;;15.67;14.57;;;9.20;99.90;;;;;;5043854;28;20749;-78
2024/01/29 11:47:59;;;;;;;14.63;13.63;;;9.20;99.90;;;;;;5038134;28;20199;-78
2024/01/29 11:50:26;;;;;;;14.80;13.67;;;9.30;99.90;;;;;;5039585;28;20202;-77
2024/01/29 11:52:52;;;;;;;14.40;13.40;;;9.40;99.90;;;;;;5046069;28;20203;-78
2024/01/29 11:55:21;;;;;;;15.40;14.30;;;9.40;99.90;;;;;;5044165;28;20256;-78
2024/01/29 11:57:51;;;;;;;14.57;13.60;;;9.40;99.90;;;;;;5034667;28;20832;-78
2024/01/29 12:00:19;;;;;;;15.40;14.30;;;9.50;99.90;;;;;;5047790;28;20214;-78
2024/01/29 12:02:48;;;;;;;14.90;13.70;;;9.50;99.90;;;;;;5037818;28;20610;-78
2024/01/29 12:05:18;;;;;;;15.07;14.07;;;9.50;99.90;;;;;;5039118;28;20204;-78
2024/01/29 12:07:46;;;;;;;14.90;13.90;;;9.50;99.90;;;;;;5039918;28;20654;-78
2024/01/29 12:10:13;;;;;;;14.17;13.17;;;9.60;99.90;;;;;;5046370;28;20217;-78
2024/01/29 12:12:40;;;;;;;15.37;14.27;;;9.70;99.90;;;;;;5040805;28;20243;-78
2024/01/29 12:15:09;;;;;;;14.53;13.43;;;9.70;99.90;;;;;;5046851;28;20698;-78
2024/01/29 12:17:38;;;;;;;15.10;14.00;;;9.80;99.90;;;;;;5047576;28;20283;-78
2024/01/29 12:20:08;;;;;;;15.27;14.07;;;9.80;99.90;;;;;;5052324;28;20593;-78
2024/01/29 12:22:36;;;;;;;14.97;13.87;;;9.90;99.90;;;;;;5037972;28;20209;-78
2024/01/29 12:25:03;;;;;;;14.50;13.50;;;10.00;99.90;;;;;;5045879;28;20674;-78
2024/01/29 12:27:30;;;;;;;14.30;13.30;;;10.10;99.90;;;;;;5038110;28;20236;-78
2024/01/29 12:29:58;;;;;;;14.10;13.10;;;10.20;99.90;;;;;;5042835;28;20236;-78
2024/01/29 12:32:25;;;;;;;14.10;13.10;;;10.30;99.90;;;;;;5044244;28;20199;-78
2024/01/29 12:34:52;;;;;;;14.33;13.33;;;10.30;99.90;;;;;;5051400;28;20231;-78